Terminal Aerodrome Forecast
Issued by NWS Wakefield, VA

Home | Current Version | Previous Version | Text Only | Print | Product List | Glossary On
Versions: 1 2 3 4 5 6 7 8 9 10 11 12 13 14
333
FTUS41 KAKQ 211724
TAFECG
TAF
KECG 211724Z 2118/2218 06009KT P6SM BKN250
     FM220000 09005KT P6SM BKN250
     FM221100 17004KT 6SM BR BKN150
     FM221300 18004KT P6SM BKN100=

USA.gov is the U.S. government's official web portal to all federal, state and local government web resources and services.